sensor_id;sensor_type;location;lat;lon;timestamp;P1;durP1;ratioP1;P2;durP2;ratioP2
14074;SDS011;12831;52.392;13.066;2023-04-07T00:00:06;16.87;;;9.23;;
14074;SDS011;12831;52.392;13.066;2023-04-07T00:02:32;12.87;;;7.43;;
14074;SDS011;12831;52.392;13.066;2023-04-07T00:04:58;17.27;;;8.40;;
14074;SDS011;12831;52.392;13.066;2023-04-07T00:07:24;18.73;;;9.27;;
14074;SDS011;12831;52.392;13.066;2023-04-07T00:09:50;15.77;;;9.07;;
14074;SDS011;12831;52.392;13.066;2023-04-07T00:12:16;21.87;;;9.50;;
14074;SDS011;12831;52.392;13.066;2023-04-07T00:14:42;14.53;;;8.27;;
14074;SDS011;12831;52.392;13.066;2023-04-07T00:17:07;14.67;;;9.10;;
14074;SDS011;12831;52.392;13.066;2023-04-07T00:19:33;16.13;;;8.80;;
14074;SDS011;12831;52.392;13.066;2023-04-07T00:22:00;20.27;;;7.57;;
14074;SDS011;12831;52.392;13.066;2023-04-07T00:24:26;14.63;;;7.60;;
14074;SDS011;12831;52.392;13.066;2023-04-07T00:26:59;18.33;;;8.03;;
14074;SDS011;12831;52.392;13.066;2023-04-07T00:29:25;21.17;;;10.77;;
14074;SDS011;12831;52.392;13.066;2023-04-07T00:31:51;13.60;;;7.70;;
14074;SDS011;12831;52.392;13.066;2023-04-07T00:34:17;12.17;;;7.23;;
14074;SDS011;12831;52.392;13.066;2023-04-07T00:36:42;13.50;;;8.17;;
14074;SDS011;12831;52.392;13.066;2023-04-07T00:39:08;14.00;;;8.33;;
14074;SDS011;12831;52.392;13.066;2023-04-07T00:41:34;11.40;;;7.53;;
14074;SDS011;12831;52.392;13.066;2023-04-07T00:44:00;12.20;;;7.00;;
14074;SDS011;12831;52.392;13.066;2023-04-07T00:46:27;14.67;;;7.50;;
14074;SDS011;12831;52.392;13.066;2023-04-07T00:48:53;11.90;;;7.50;;
14074;SDS011;12831;52.392;13.066;2023-04-07T00:51:19;14.43;;;7.60;;
14074;SDS011;12831;52.392;13.066;2023-04-07T00:53:45;12.93;;;8.13;;
14074;SDS011;12831;52.392;13.066;2023-04-07T00:56:11;16.70;;;7.53;;
14074;SDS011;12831;52.392;13.066;2023-04-07T00:58:37;13.33;;;8.17;;
14074;SDS011;12831;52.392;13.066;2023-04-07T01:01:05;11.57;;;7.13;;
14074;SDS011;12831;52.392;13.066;2023-04-07T01:03:36;12.07;;;8.17;;
14074;SDS011;12831;52.392;13.066;2023-04-07T01:06:04;18.83;;;7.73;;
14074;SDS011;12831;52.392;13.066;2023-04-07T01:11:02;18.17;;;10.63;;
14074;SDS011;12831;52.392;13.066;2023-04-07T01:13:40;16.10;;;9.93;;
14074;SDS011;12831;52.392;13.066;2023-04-07T01:16:12;19.37;;;8.07;;
14074;SDS011;12831;52.392;13.066;2023-04-07T01:18:40;13.60;;;7.50;;
14074;SDS011;12831;52.392;13.066;2023-04-07T01:21:08;14.37;;;8.80;;
14074;SDS011;12831;52.392;13.066;2023-04-07T01:28:34;14.63;;;8.43;;
14074;SDS011;12831;52.392;13.066;2023-04-07T01:31:04;10.33;;;7.57;;
14074;SDS011;12831;52.392;13.066;2023-04-07T01:33:32;12.40;;;6.67;;
14074;SDS011;12831;52.392;13.066;2023-04-07T01:36:01;9.90;;;6.17;;
14074;SDS011;12831;52.392;13.066;2023-04-07T01:38:28;15.47;;;7.90;;
14074;SDS011;12831;52.392;13.066;2023-04-07T01:40:55;13.13;;;7.33;;
14074;SDS011;12831;52.392;13.066;2023-04-07T01:43:22;13.83;;;7.50;;
14074;SDS011;12831;52.392;13.066;2023-04-07T01:45:49;14.13;;;6.87;;
14074;SDS011;12831;52.392;13.066;2023-04-07T01:48:15;11.33;;;6.97;;
14074;SDS011;12831;52.392;13.066;2023-04-07T01:50:42;16.00;;;7.93;;
14074;SDS011;12831;52.392;13.066;2023-04-07T01:53:08;14.97;;;7.70;;
14074;SDS011;12831;52.392;13.066;2023-04-07T01:55:35;11.50;;;7.50;;
14074;SDS011;12831;52.392;13.066;2023-04-07T01:58:05;12.53;;;7.97;;
14074;SDS011;12831;52.392;13.066;2023-04-07T02:00:31;14.23;;;7.53;;
14074;SDS011;12831;52.392;13.066;2023-04-07T02:03:06;14.43;;;6.50;;
14074;SDS011;12831;52.392;13.066;2023-04-07T02:05:32;17.03;;;9.23;;
14074;SDS011;12831;52.392;13.066;2023-04-07T02:08:01;14.93;;;6.87;;
14074;SDS011;12831;52.392;13.066;2023-04-07T02:10:28;11.10;;;6.93;;
14074;SDS011;12831;52.392;13.066;2023-04-07T02:12:54;12.33;;;6.60;;
14074;SDS011;12831;52.392;13.066;2023-04-07T02:15:21;10.67;;;6.53;;
14074;SDS011;12831;52.392;13.066;2023-04-07T02:17:48;13.43;;;6.63;;
14074;SDS011;12831;52.392;13.066;2023-04-07T02:20:15;11.43;;;7.33;;
14074;SDS011;12831;52.392;13.066;2023-04-07T02:22:42;12.57;;;6.77;;
14074;SDS011;12831;52.392;13.066;2023-04-07T02:25:25;11.57;;;7.40;;
14074;SDS011;12831;52.392;13.066;2023-04-07T02:27:51;12.37;;;7.27;;
14074;SDS011;12831;52.392;13.066;2023-04-07T02:30:17;12.50;;;7.80;;
14074;SDS011;12831;52.392;13.066;2023-04-07T02:32:43;15.10;;;7.83;;
14074;SDS011;12831;52.392;13.066;2023-04-07T02:35:09;14.00;;;6.97;;
14074;SDS011;12831;52.392;13.066;2023-04-07T02:37:34;11.03;;;7.40;;
14074;SDS011;12831;52.392;13.066;2023-04-07T02:40:01;13.60;;;7.47;;
14074;SDS011;12831;52.392;13.066;2023-04-07T02:42:27;16.37;;;9.23;;
14074;SDS011;12831;52.392;13.066;2023-04-07T02:44:52;13.73;;;7.50;;
14074;SDS011;12831;52.392;13.066;2023-04-07T02:47:18;17.43;;;9.37;;
14074;SDS011;12831;52.392;13.066;2023-04-07T02:49:44;13.60;;;6.73;;
14074;SDS011;12831;52.392;13.066;2023-04-07T02:52:10;12.17;;;7.83;;
14074;SDS011;12831;52.392;13.066;2023-04-07T02:54:35;12.93;;;7.10;;
14074;SDS011;12831;52.392;13.066;2023-04-07T02:57:01;14.63;;;6.60;;
14074;SDS011;12831;52.392;13.066;2023-04-07T02:59:27;11.80;;;6.83;;
14074;SDS011;12831;52.392;13.066;2023-04-07T03:01:53;12.50;;;7.40;;
14074;SDS011;12831;52.392;13.066;2023-04-07T03:04:20;11.93;;;6.90;;
14074;SDS011;12831;52.392;13.066;2023-04-07T03:06:46;13.77;;;7.37;;
14074;SDS011;12831;52.392;13.066;2023-04-07T03:09:11;12.73;;;7.50;;
14074;SDS011;12831;52.392;13.066;2023-04-07T03:11:37;14.07;;;6.90;;
14074;SDS011;12831;52.392;13.066;2023-04-07T03:14:03;14.10;;;8.43;;
14074;SDS011;12831;52.392;13.066;2023-04-07T03:16:29;11.50;;;6.90;;
14074;SDS011;12831;52.392;13.066;2023-04-07T03:18:55;10.50;;;6.30;;
14074;SDS011;12831;52.392;13.066;2023-04-07T03:21:20;12.63;;;7.63;;
14074;SDS011;12831;52.392;13.066;2023-04-07T03:23:46;10.57;;;6.20;;
14074;SDS011;12831;52.392;13.066;2023-04-07T03:26:13;13.27;;;7.07;;
14074;SDS011;12831;52.392;13.066;2023-04-07T03:28:38;12.37;;;7.90;;
14074;SDS011;12831;52.392;13.066;2023-04-07T03:31:05;20.33;;;6.63;;
14074;SDS011;12831;52.392;13.066;2023-04-07T03:33:30;15.27;;;7.23;;
14074;SDS011;12831;52.392;13.066;2023-04-07T03:35:56;9.90;;;6.00;;
14074;SDS011;12831;52.392;13.066;2023-04-07T03:38:22;13.30;;;7.40;;
14074;SDS011;12831;52.392;13.066;2023-04-07T03:40:48;14.73;;;6.63;;
14074;SDS011;12831;52.392;13.066;2023-04-07T03:43:13;13.03;;;8.47;;
14074;SDS011;12831;52.392;13.066;2023-04-07T03:45:41;12.53;;;8.27;;
14074;SDS011;12831;52.392;13.066;2023-04-07T03:48:07;14.20;;;7.70;;
14074;SDS011;12831;52.392;13.066;2023-04-07T03:50:37;12.23;;;6.63;;
14074;SDS011;12831;52.392;13.066;2023-04-07T03:53:02;13.47;;;7.03;;
14074;SDS011;12831;52.392;13.066;2023-04-07T03:55:28;12.77;;;7.27;;
14074;SDS011;12831;52.392;13.066;2023-04-07T03:57:54;11.30;;;6.80;;
14074;SDS011;12831;52.392;13.066;2023-04-07T04:00:20;15.67;;;7.10;;
14074;SDS011;12831;52.392;13.066;2023-04-07T04:02:46;12.30;;;6.90;;
14074;SDS011;12831;52.392;13.066;2023-04-07T04:05:12;12.83;;;6.40;;
14074;SDS011;12831;52.392;13.066;2023-04-07T04:07:38;14.57;;;7.43;;
14074;SDS011;12831;52.392;13.066;2023-04-07T04:10:04;14.57;;;7.00;;
14074;SDS011;12831;52.392;13.066;2023-04-07T04:12:31;13.07;;;7.20;;
14074;SDS011;12831;52.392;13.066;2023-04-07T04:14:57;11.50;;;7.00;;
14074;SDS011;12831;52.392;13.066;2023-04-07T04:17:25;12.90;;;6.60;;
14074;SDS011;12831;52.392;13.066;2023-04-07T04:19:51;10.30;;;6.67;;
14074;SDS011;12831;52.392;13.066;2023-04-07T04:22:17;16.37;;;7.87;;
14074;SDS011;12831;52.392;13.066;2023-04-07T04:24:43;11.67;;;6.50;;
14074;SDS011;12831;52.392;13.066;2023-04-07T04:27:09;13.70;;;6.30;;
14074;SDS011;12831;52.392;13.066;2023-04-07T04:29:34;14.93;;;6.90;;
14074;SDS011;12831;52.392;13.066;2023-04-07T04:32:00;9.97;;;5.83;;
14074;SDS011;12831;52.392;13.066;2023-04-07T04:34:26;13.30;;;7.23;;
14074;SDS011;12831;52.392;13.066;2023-04-07T04:36:52;11.77;;;7.17;;
14074;SDS011;12831;52.392;13.066;2023-04-07T04:39:18;9.93;;;6.53;;
14074;SDS011;12831;52.392;13.066;2023-04-07T04:41:44;12.20;;;6.73;;
14074;SDS011;12831;52.392;13.066;2023-04-07T04:44:10;14.17;;;6.33;;
14074;SDS011;12831;52.392;13.066;2023-04-07T04:46:42;11.33;;;7.67;;
14074;SDS011;12831;52.392;13.066;2023-04-07T04:49:07;13.77;;;7.43;;
14074;SDS011;12831;52.392;13.066;2023-04-07T04:51:34;14.10;;;7.77;;
14074;SDS011;12831;52.392;13.066;2023-04-07T04:54:00;14.77;;;7.33;;
14074;SDS011;12831;52.392;13.066;2023-04-07T04:56:28;12.07;;;6.13;;
14074;SDS011;12831;52.392;13.066;2023-04-07T04:58:54;11.23;;;6.40;;
14074;SDS011;12831;52.392;13.066;2023-04-07T05:01:20;11.03;;;6.23;;
14074;SDS011;12831;52.392;13.066;2023-04-07T05:03:45;12.37;;;6.50;;
14074;SDS011;12831;52.392;13.066;2023-04-07T05:06:11;12.70;;;7.13;;
14074;SDS011;12831;52.392;13.066;2023-04-07T05:08:37;13.57;;;8.27;;
14074;SDS011;12831;52.392;13.066;2023-04-07T05:11:03;12.63;;;6.80;;
14074;SDS011;12831;52.392;13.066;2023-04-07T05:13:29;12.18;;;5.70;;
14074;SDS011;12831;52.392;13.066;2023-04-07T05:15:55;11.98;;;6.13;;
14074;SDS011;12831;52.392;13.066;2023-04-07T05:18:21;11.60;;;7.00;;
14074;SDS011;12831;52.392;13.066;2023-04-07T05:20:47;13.52;;;7.60;;
14074;SDS011;12831;52.392;13.066;2023-04-07T05:23:13;12.95;;;6.80;;
14074;SDS011;12831;52.392;13.066;2023-04-07T05:25:39;9.93;;;6.10;;
14074;SDS011;12831;52.392;13.066;2023-04-07T05:28:05;14.90;;;7.40;;
14074;SDS011;12831;52.392;13.066;2023-04-07T05:30:31;11.20;;;7.13;;
14074;SDS011;12831;52.392;13.066;2023-04-07T05:32:57;11.82;;;7.07;;
14074;SDS011;12831;52.392;13.066;2023-04-07T05:35:23;10.30;;;6.10;;
14074;SDS011;12831;52.392;13.066;2023-04-07T05:37:48;9.98;;;6.07;;
14074;SDS011;12831;52.392;13.066;2023-04-07T05:40:14;9.43;;;6.45;;
14074;SDS011;12831;52.392;13.066;2023-04-07T05:42:40;9.57;;;6.35;;
14074;SDS011;12831;52.392;13.066;2023-04-07T05:45:06;9.63;;;5.55;;
14074;SDS011;12831;52.392;13.066;2023-04-07T05:47:48;11.43;;;6.07;;
14074;SDS011;12831;52.392;13.066;2023-04-07T05:50:15;10.27;;;6.43;;
14074;SDS011;12831;52.392;13.066;2023-04-07T05:52:41;10.30;;;6.28;;
14074;SDS011;12831;52.392;13.066;2023-04-07T05:55:07;12.40;;;6.53;;
14074;SDS011;12831;52.392;13.066;2023-04-07T05:57:33;10.77;;;6.03;;
14074;SDS011;12831;52.392;13.066;2023-04-07T05:59:59;10.15;;;6.45;;
14074;SDS011;12831;52.392;13.066;2023-04-07T06:02:25;9.73;;;6.32;;
14074;SDS011;12831;52.392;13.066;2023-04-07T06:04:51;13.15;;;5.88;;
14074;SDS011;12831;52.392;13.066;2023-04-07T06:07:17;11.07;;;6.78;;
14074;SDS011;12831;52.392;13.066;2023-04-07T06:09:43;11.13;;;6.45;;
14074;SDS011;12831;52.392;13.066;2023-04-07T06:12:08;10.55;;;6.47;;
14074;SDS011;12831;52.392;13.066;2023-04-07T06:14:37;12.50;;;7.10;;
14074;SDS011;12831;52.392;13.066;2023-04-07T06:17:15;15.75;;;6.95;;
14074;SDS011;12831;52.392;13.066;2023-04-07T06:19:40;12.00;;;7.85;;
14074;SDS011;12831;52.392;13.066;2023-04-07T06:22:06;11.25;;;6.10;;
14074;SDS011;12831;52.392;13.066;2023-04-07T06:24:32;15.90;;;7.20;;
14074;SDS011;12831;52.392;13.066;2023-04-07T06:26:59;9.57;;;5.97;;
14074;SDS011;12831;52.392;13.066;2023-04-07T06:29:25;10.95;;;6.32;;
14074;SDS011;12831;52.392;13.066;2023-04-07T06:31:52;11.75;;;6.35;;
14074;SDS011;12831;52.392;13.066;2023-04-07T06:34:18;10.18;;;6.38;;
14074;SDS011;12831;52.392;13.066;2023-04-07T06:36:43;9.98;;;6.55;;
14074;SDS011;12831;52.392;13.066;2023-04-07T06:39:11;10.45;;;6.00;;
14074;SDS011;12831;52.392;13.066;2023-04-07T06:41:37;11.50;;;6.72;;
14074;SDS011;12831;52.392;13.066;2023-04-07T06:44:04;11.88;;;7.07;;
14074;SDS011;12831;52.392;13.066;2023-04-07T06:46:34;10.77;;;6.60;;
14074;SDS011;12831;52.392;13.066;2023-04-07T06:49:01;11.93;;;7.00;;
14074;SDS011;12831;52.392;13.066;2023-04-07T06:51:28;10.50;;;6.35;;
14074;SDS011;12831;52.392;13.066;2023-04-07T06:53:54;10.32;;;5.68;;
14074;SDS011;12831;52.392;13.066;2023-04-07T06:56:21;11.75;;;6.50;;
14074;SDS011;12831;52.392;13.066;2023-04-07T06:58:47;10.45;;;6.80;;
14074;SDS011;12831;52.392;13.066;2023-04-07T07:01:13;14.75;;;7.00;;
14074;SDS011;12831;52.392;13.066;2023-04-07T07:03:39;8.00;;;6.60;;
14074;SDS011;12831;52.392;13.066;2023-04-07T07:06:05;11.07;;;6.43;;
14074;SDS011;12831;52.392;13.066;2023-04-07T07:08:31;12.27;;;6.32;;
14074;SDS011;12831;52.392;13.066;2023-04-07T07:10:57;7.90;;;5.90;;
14074;SDS011;12831;52.392;13.066;2023-04-07T07:13:24;11.70;;;6.97;;
14074;SDS011;12831;52.392;13.066;2023-04-07T07:15:59;11.70;;;6.15;;
14074;SDS011;12831;52.392;13.066;2023-04-07T07:18:25;10.55;;;6.90;;
14074;SDS011;12831;52.392;13.066;2023-04-07T07:20:51;12.77;;;6.82;;
14074;SDS011;12831;52.392;13.066;2023-04-07T07:23:17;12.80;;;6.25;;
14074;SDS011;12831;52.392;13.066;2023-04-07T07:25:43;13.48;;;6.20;;
14074;SDS011;12831;52.392;13.066;2023-04-07T07:28:09;13.13;;;6.53;;
14074;SDS011;12831;52.392;13.066;2023-04-07T07:30:37;12.10;;;5.95;;
14074;SDS011;12831;52.392;13.066;2023-04-07T07:33:03;7.75;;;5.18;;
14074;SDS011;12831;52.392;13.066;2023-04-07T07:35:29;9.45;;;6.03;;
14074;SDS011;12831;52.392;13.066;2023-04-07T07:37:57;11.23;;;6.53;;
14074;SDS011;12831;52.392;13.066;2023-04-07T07:40:23;9.25;;;6.05;;
14074;SDS011;12831;52.392;13.066;2023-04-07T07:42:49;9.05;;;5.97;;
14074;SDS011;12831;52.392;13.066;2023-04-07T07:45:15;9.30;;;5.60;;
14074;SDS011;12831;52.392;13.066;2023-04-07T07:47:44;10.43;;;5.88;;
14074;SDS011;12831;52.392;13.066;2023-04-07T07:50:10;8.77;;;6.18;;
14074;SDS011;12831;52.392;13.066;2023-04-07T07:52:36;8.90;;;5.40;;
14074;SDS011;12831;52.392;13.066;2023-04-07T07:55:02;10.65;;;6.43;;
14074;SDS011;12831;52.392;13.066;2023-04-07T07:57:28;9.85;;;6.55;;
14074;SDS011;12831;52.392;13.066;2023-04-07T07:59:55;12.60;;;6.93;;
14074;SDS011;12831;52.392;13.066;2023-04-07T08:02:21;10.18;;;5.78;;
14074;SDS011;12831;52.392;13.066;2023-04-07T08:04:48;11.38;;;6.70;;
14074;SDS011;12831;52.392;13.066;2023-04-07T08:07:14;9.77;;;5.60;;
14074;SDS011;12831;52.392;13.066;2023-04-07T08:09:40;12.68;;;6.97;;
14074;SDS011;12831;52.392;13.066;2023-04-07T08:12:06;12.50;;;6.72;;
14074;SDS011;12831;52.392;13.066;2023-04-07T08:14:32;14.43;;;5.30;;
14074;SDS011;12831;52.392;13.066;2023-04-07T08:16:58;10.60;;;5.82;;
14074;SDS011;12831;52.392;13.066;2023-04-07T08:19:24;11.05;;;5.70;;
14074;SDS011;12831;52.392;13.066;2023-04-07T08:21:50;9.63;;;6.07;;
14074;SDS011;12831;52.392;13.066;2023-04-07T08:24:16;8.50;;;5.97;;
14074;SDS011;12831;52.392;13.066;2023-04-07T08:26:42;10.13;;;5.35;;
14074;SDS011;12831;52.392;13.066;2023-04-07T08:29:10;7.57;;;5.13;;
14074;SDS011;12831;52.392;13.066;2023-04-07T08:31:35;9.70;;;5.95;;
14074;SDS011;12831;52.392;13.066;2023-04-07T08:34:02;10.93;;;6.00;;
14074;SDS011;12831;52.392;13.066;2023-04-07T08:36:28;8.25;;;5.25;;
14074;SDS011;12831;52.392;13.066;2023-04-07T08:38:55;11.73;;;5.55;;
14074;SDS011;12831;52.392;13.066;2023-04-07T08:41:37;11.27;;;5.65;;
14074;SDS011;12831;52.392;13.066;2023-04-07T08:44:03;7.57;;;5.25;;
14074;SDS011;12831;52.392;13.066;2023-04-07T08:46:38;7.90;;;5.38;;
14074;SDS011;12831;52.392;13.066;2023-04-07T08:49:08;8.13;;;5.53;;
14074;SDS011;12831;52.392;13.066;2023-04-07T08:51:36;10.35;;;4.82;;
14074;SDS011;12831;52.392;13.066;2023-04-07T08:54:04;8.52;;;5.50;;
14074;SDS011;12831;52.392;13.066;2023-04-07T08:56:32;10.07;;;5.65;;
14074;SDS011;12831;52.392;13.066;2023-04-07T08:58:59;9.38;;;4.72;;
14074;SDS011;12831;52.392;13.066;2023-04-07T09:01:25;9.25;;;5.18;;
14074;SDS011;12831;52.392;13.066;2023-04-07T09:03:51;11.38;;;5.30;;
14074;SDS011;12831;52.392;13.066;2023-04-07T09:06:17;11.02;;;6.10;;
14074;SDS011;12831;52.392;13.066;2023-04-07T09:08:43;10.15;;;5.47;;
14074;SDS011;12831;52.392;13.066;2023-04-07T09:11:09;8.77;;;5.28;;
14074;SDS011;12831;52.392;13.066;2023-04-07T09:13:36;9.23;;;4.95;;
14074;SDS011;12831;52.392;13.066;2023-04-07T09:16:08;7.47;;;4.47;;
14074;SDS011;12831;52.392;13.066;2023-04-07T09:18:34;8.65;;;5.60;;
14074;SDS011;12831;52.392;13.066;2023-04-07T09:21:02;9.07;;;4.90;;
14074;SDS011;12831;52.392;13.066;2023-04-07T09:23:32;6.68;;;3.83;;
14074;SDS011;12831;52.392;13.066;2023-04-07T09:26:00;8.60;;;4.22;;
14074;SDS011;12831;52.392;13.066;2023-04-07T09:28:42;6.47;;;3.70;;
14074;SDS011;12831;52.392;13.066;2023-04-07T09:31:08;9.38;;;4.18;;
14074;SDS011;12831;52.392;13.066;2023-04-07T09:33:34;8.10;;;3.78;;
14074;SDS011;12831;52.392;13.066;2023-04-07T09:36:02;7.40;;;4.07;;
14074;SDS011;12831;52.392;13.066;2023-04-07T09:38:34;6.88;;;3.55;;
14074;SDS011;12831;52.392;13.066;2023-04-07T09:41:07;7.32;;;4.80;;
14074;SDS011;12831;52.392;13.066;2023-04-07T09:43:38;9.10;;;3.85;;
14074;SDS011;12831;52.392;13.066;2023-04-07T09:46:23;6.57;;;3.65;;
14074;SDS011;12831;52.392;13.066;2023-04-07T09:48:59;8.27;;;3.88;;
14074;SDS011;12831;52.392;13.066;2023-04-07T09:51:26;6.85;;;3.28;;
14074;SDS011;12831;52.392;13.066;2023-04-07T09:53:52;6.13;;;3.47;;
14074;SDS011;12831;52.392;13.066;2023-04-07T09:56:18;10.38;;;3.67;;
14074;SDS011;12831;52.392;13.066;2023-04-07T09:58:47;6.45;;;3.35;;
14074;SDS011;12831;52.392;13.066;2023-04-07T10:01:14;7.93;;;4.13;;
14074;SDS011;12831;52.392;13.066;2023-04-07T10:03:41;10.57;;;3.85;;
14074;SDS011;12831;52.392;13.066;2023-04-07T10:06:07;7.78;;;4.05;;
14074;SDS011;12831;52.392;13.066;2023-04-07T10:08:34;8.77;;;4.38;;
14074;SDS011;12831;52.392;13.066;2023-04-07T10:11:01;7.68;;;3.83;;
14074;SDS011;12831;52.392;13.066;2023-04-07T10:13:30;6.03;;;2.80;;
14074;SDS011;12831;52.392;13.066;2023-04-07T10:18:51;6.97;;;3.92;;
14074;SDS011;12831;52.392;13.066;2023-04-07T10:21:17;6.85;;;3.35;;
14074;SDS011;12831;52.392;13.066;2023-04-07T10:26:19;6.90;;;3.28;;
14074;SDS011;12831;52.392;13.066;2023-04-07T10:28:47;8.25;;;4.32;;
14074;SDS011;12831;52.392;13.066;2023-04-07T10:31:14;7.93;;;4.50;;
14074;SDS011;12831;52.392;13.066;2023-04-07T10:33:48;6.75;;;3.58;;
14074;SDS011;12831;52.392;13.066;2023-04-07T10:36:16;7.47;;;4.13;;
14074;SDS011;12831;52.392;13.066;2023-04-07T10:38:55;6.53;;;3.72;;
14074;SDS011;12831;52.392;13.066;2023-04-07T10:41:38;8.73;;;4.32;;
14074;SDS011;12831;52.392;13.066;2023-04-07T10:44:05;6.78;;;3.90;;
14074;SDS011;12831;52.392;13.066;2023-04-07T10:49:16;5.03;;;2.63;;
14074;SDS011;12831;52.392;13.066;2023-04-07T10:51:44;7.38;;;3.65;;
14074;SDS011;12831;52.392;13.066;2023-04-07T10:54:30;5.03;;;3.08;;
14074;SDS011;12831;52.392;13.066;2023-04-07T10:59:30;3.75;;;2.50;;
14074;SDS011;12831;52.392;13.066;2023-04-07T11:04:43;5.93;;;2.92;;
14074;SDS011;12831;52.392;13.066;2023-04-07T11:07:15;6.28;;;2.55;;
14074;SDS011;12831;52.392;13.066;2023-04-07T11:09:44;6.28;;;3.25;;
14074;SDS011;12831;52.392;13.066;2023-04-07T11:12:23;4.47;;;2.08;;
14074;SDS011;12831;52.392;13.066;2023-04-07T11:14:49;6.47;;;2.45;;
14074;SDS011;12831;52.392;13.066;2023-04-07T11:17:15;4.22;;;2.63;;
14074;SDS011;12831;52.392;13.066;2023-04-07T11:19:53;5.28;;;2.42;;
14074;SDS011;12831;52.392;13.066;2023-04-07T11:22:19;6.22;;;3.15;;
14074;SDS011;12831;52.392;13.066;2023-04-07T11:24:48;7.55;;;2.70;;
14074;SDS011;12831;52.392;13.066;2023-04-07T11:27:14;3.78;;;2.53;;
14074;SDS011;12831;52.392;13.066;2023-04-07T11:29:40;4.70;;;2.38;;
14074;SDS011;12831;52.392;13.066;2023-04-07T11:32:06;4.25;;;2.50;;
14074;SDS011;12831;52.392;13.066;2023-04-07T11:34:34;5.72;;;2.67;;
14074;SDS011;12831;52.392;13.066;2023-04-07T11:39:49;3.65;;;1.92;;
14074;SDS011;12831;52.392;13.066;2023-04-07T11:42:15;6.05;;;2.00;;
14074;SDS011;12831;52.392;13.066;2023-04-07T11:44:46;4.65;;;2.47;;
14074;SDS011;12831;52.392;13.066;2023-04-07T11:47:20;4.78;;;2.10;;
14074;SDS011;12831;52.392;13.066;2023-04-07T11:49:47;4.75;;;2.35;;
14074;SDS011;12831;52.392;13.066;2023-04-07T11:52:13;5.95;;;2.10;;
14074;SDS011;12831;52.392;13.066;2023-04-07T11:54:43;6.97;;;2.50;;
14074;SDS011;12831;52.392;13.066;2023-04-07T11:57:11;5.50;;;2.88;;
14074;SDS011;12831;52.392;13.066;2023-04-07T11:59:38;5.30;;;2.60;;
14074;SDS011;12831;52.392;13.066;2023-04-07T12:02:05;4.35;;;2.85;;
14074;SDS011;12831;52.392;13.066;2023-04-07T12:04:31;4.78;;;2.50;;
14074;SDS011;12831;52.392;13.066;2023-04-07T12:07:07;7.07;;;2.88;;
14074;SDS011;12831;52.392;13.066;2023-04-07T12:09:34;5.70;;;2.95;;
14074;SDS011;12831;52.392;13.066;2023-04-07T12:12:01;7.18;;;2.50;;
14074;SDS011;12831;52.392;13.066;2023-04-07T12:14:30;4.13;;;2.08;;
14074;SDS011;12831;52.392;13.066;2023-04-07T12:16:56;3.65;;;1.77;;
14074;SDS011;12831;52.392;13.066;2023-04-07T12:19:27;5.78;;;2.53;;
14074;SDS011;12831;52.392;13.066;2023-04-07T12:21:55;5.55;;;2.55;;
14074;SDS011;12831;52.392;13.066;2023-04-07T12:24:21;4.43;;;2.90;;
14074;SDS011;12831;52.392;13.066;2023-04-07T12:26:48;6.85;;;3.20;;
14074;SDS011;12831;52.392;13.066;2023-04-07T12:29:15;4.93;;;2.78;;
14074;SDS011;12831;52.392;13.066;2023-04-07T12:31:41;6.65;;;2.97;;
14074;SDS011;12831;52.392;13.066;2023-04-07T12:34:08;6.82;;;3.20;;
14074;SDS011;12831;52.392;13.066;2023-04-07T12:36:36;5.60;;;3.25;;
14074;SDS011;12831;52.392;13.066;2023-04-07T12:39:02;5.85;;;3.47;;
14074;SDS011;12831;52.392;13.066;2023-04-07T12:41:28;5.03;;;2.65;;
14074;SDS011;12831;52.392;13.066;2023-04-07T12:43:54;12.20;;;4.15;;
14074;SDS011;12831;52.392;13.066;2023-04-07T12:46:39;4.85;;;2.80;;
14074;SDS011;12831;52.392;13.066;2023-04-07T12:49:05;7.93;;;3.50;;
14074;SDS011;12831;52.392;13.066;2023-04-07T12:51:32;7.60;;;3.63;;
14074;SDS011;12831;52.392;13.066;2023-04-07T12:53:58;6.75;;;3.53;;
14074;SDS011;12831;52.392;13.066;2023-04-07T12:56:25;6.15;;;2.80;;
14074;SDS011;12831;52.392;13.066;2023-04-07T12:58:52;3.50;;;2.30;;
14074;SDS011;12831;52.392;13.066;2023-04-07T13:01:19;6.60;;;4.07;;
14074;SDS011;12831;52.392;13.066;2023-04-07T13:03:45;3.97;;;2.92;;
14074;SDS011;12831;52.392;13.066;2023-04-07T13:06:11;5.50;;;2.80;;
14074;SDS011;12831;52.392;13.066;2023-04-07T13:08:37;5.57;;;2.78;;
14074;SDS011;12831;52.392;13.066;2023-04-07T13:11:04;4.28;;;3.00;;
14074;SDS011;12831;52.392;13.066;2023-04-07T13:13:30;5.85;;;3.03;;
14074;SDS011;12831;52.392;13.066;2023-04-07T13:15:56;4.80;;;3.45;;
14074;SDS011;12831;52.392;13.066;2023-04-07T13:18:22;8.23;;;3.55;;
14074;SDS011;12831;52.392;13.066;2023-04-07T13:20:48;6.70;;;3.80;;
14074;SDS011;12831;52.392;13.066;2023-04-07T13:23:35;3.75;;;2.47;;
14074;SDS011;12831;52.392;13.066;2023-04-07T13:26:08;3.67;;;2.22;;
14074;SDS011;12831;52.392;13.066;2023-04-07T13:28:34;5.63;;;2.55;;
14074;SDS011;12831;52.392;13.066;2023-04-07T13:31:00;5.10;;;3.10;;
14074;SDS011;12831;52.392;13.066;2023-04-07T13:33:26;7.28;;;4.40;;
14074;SDS011;12831;52.392;13.066;2023-04-07T13:35:52;4.00;;;2.22;;
14074;SDS011;12831;52.392;13.066;2023-04-07T13:38:18;3.85;;;2.50;;
14074;SDS011;12831;52.392;13.066;2023-04-07T13:40:43;3.78;;;2.60;;
14074;SDS011;12831;52.392;13.066;2023-04-07T13:43:09;4.60;;;2.60;;
14074;SDS011;12831;52.392;13.066;2023-04-07T13:45:43;4.22;;;2.38;;
14074;SDS011;12831;52.392;13.066;2023-04-07T13:48:09;5.03;;;2.47;;
14074;SDS011;12831;52.392;13.066;2023-04-07T13:50:35;3.22;;;1.85;;
14074;SDS011;12831;52.392;13.066;2023-04-07T13:53:01;4.07;;;2.38;;
14074;SDS011;12831;52.392;13.066;2023-04-07T13:55:27;2.83;;;1.90;;
14074;SDS011;12831;52.392;13.066;2023-04-07T13:57:53;2.90;;;1.70;;
14074;SDS011;12831;52.392;13.066;2023-04-07T14:00:19;4.03;;;2.47;;
14074;SDS011;12831;52.392;13.066;2023-04-07T14:02:46;4.13;;;2.25;;
14074;SDS011;12831;52.392;13.066;2023-04-07T14:05:13;5.57;;;2.30;;
14074;SDS011;12831;52.392;13.066;2023-04-07T14:07:39;2.58;;;1.48;;
14074;SDS011;12831;52.392;13.066;2023-04-07T14:10:05;2.53;;;1.58;;
14074;SDS011;12831;52.392;13.066;2023-04-07T14:12:35;2.97;;;1.70;;
14074;SDS011;12831;52.392;13.066;2023-04-07T14:15:01;4.18;;;1.50;;
14074;SDS011;12831;52.392;13.066;2023-04-07T14:17:28;2.50;;;1.60;;
14074;SDS011;12831;52.392;13.066;2023-04-07T14:19:54;3.35;;;1.55;;
14074;SDS011;12831;52.392;13.066;2023-04-07T14:22:20;5.47;;;2.38;;
14074;SDS011;12831;52.392;13.066;2023-04-07T14:24:48;3.00;;;1.77;;
14074;SDS011;12831;52.392;13.066;2023-04-07T14:27:14;3.00;;;1.55;;
14074;SDS011;12831;52.392;13.066;2023-04-07T14:29:46;2.78;;;1.75;;
14074;SDS011;12831;52.392;13.066;2023-04-07T14:32:12;3.88;;;2.08;;
14074;SDS011;12831;52.392;13.066;2023-04-07T14:34:38;3.08;;;1.63;;
14074;SDS011;12831;52.392;13.066;2023-04-07T14:37:04;4.43;;;1.83;;
14074;SDS011;12831;52.392;13.066;2023-04-07T14:39:30;3.17;;;2.05;;
14074;SDS011;12831;52.392;13.066;2023-04-07T14:41:57;3.13;;;1.98;;
14074;SDS011;12831;52.392;13.066;2023-04-07T14:44:23;5.47;;;1.88;;
14074;SDS011;12831;52.392;13.066;2023-04-07T14:46:49;3.67;;;2.17;;
14074;SDS011;12831;52.392;13.066;2023-04-07T14:49:15;2.70;;;1.83;;
14074;SDS011;12831;52.392;13.066;2023-04-07T14:51:41;3.55;;;2.30;;